East Farmingdale, New York
Current Conditions -  °F | °C
As of 7:53 AM on Saturday 20 Dec 2014 (Local Time) from KFRG Reporting Station
Overcast Overcast  
Wind Chill: 23°   Ceiling: 2400
Heat Index: 31°   Visibility: 10mi
Dew Point: 21°   Wind: 8mph
Humidity: 67%   Direction: 350°N
Pressure: 30.26"   Gusts: NA
Location:  40.7334°N, 73.4289°W
Report Text: KFRG 201253Z 35007KT 10SM OVC024 M01/M06 A3026 RMK AO2 SLP248 T10061061
Loading
Personal Weather Stations






























Interactive Weather Map New forecast layout! Learn more

10-Day Weather Forecast

Advertisements
Track Severe Weather on mobile